Time;durP1;ratioP1;P1;durP2;ratioP2;P2;SDS_P1;SDS_P2;PMS_P1;PMS_P2;Temp;Humidity;BMP_temperature;BMP_pressure;BME280_temperature;BME280_humidity;BME280_pressure;Samples;Min_cycle;Max_cycle;Signal;HPM_P1;HPM_P2
2021/03/29 00:01:57;;;;;;;14.73;3.17;;;8.80;99.90;;;;;;5062243;28;20087;-71
2021/03/29 00:04:23;;;;;;;10.90;2.70;;;8.90;99.90;;;;;;5058601;28;20497;-72
2021/03/29 00:06:51;;;;;;;8.40;3.20;;;8.90;99.90;;;;;;5062078;28;20048;-72
2021/03/29 00:09:17;;;;;;;16.52;3.17;;;8.80;99.90;;;;;;5061233;28;20071;-71
2021/03/29 00:11:44;;;;;;;12.25;2.88;;;8.80;99.90;;;;;;5059192;28;20051;-71
2021/03/29 00:14:11;;;;;;;11.40;2.60;;;9.00;99.90;;;;;;5061660;28;20455;-72
2021/03/29 00:16:39;;;;;;;10.65;2.95;;;9.10;99.90;;;;;;5066215;28;20144;-71
2021/03/29 00:19:08;;;;;;;12.68;3.33;;;9.10;99.90;;;;;;5065587;28;20052;-73
2021/03/29 00:21:36;;;;;;;9.65;2.35;;;9.00;99.90;;;;;;5061710;28;20148;-71
2021/03/29 00:24:03;;;;;;;;;;;8.90;99.90;;;;;;5066162;28;20056;-72
2021/03/29 00:26:29;;;;;;;6.50;1.92;;;9.00;99.90;;;;;;5065765;28;20019;-70
2021/03/29 00:28:55;;;;;;;9.48;2.15;;;9.00;99.90;;;;;;5055714;28;20045;-72
2021/03/29 00:31:21;;;;;;;12.98;2.90;;;9.00;99.90;;;;;;5064863;28;20052;-73
2021/03/29 00:33:48;;;;;;;11.23;2.42;;;9.20;99.90;;;;;;5066918;28;20044;-72
2021/03/29 00:36:15;;;;;;;8.45;3.22;;;9.10;99.90;;;;;;5064492;28;20067;-72
2021/03/29 00:38:42;;;;;;;13.20;2.17;;;9.10;99.90;;;;;;5065392;28;20053;-73
2021/03/29 00:41:10;;;;;;;7.70;2.45;;;9.30;99.90;;;;;;5064905;28;20490;-71
2021/03/29 00:43:42;;;;;;;6.88;2.33;;;9.30;99.90;;;;;;5064170;28;20041;-72
2021/03/29 00:46:10;;;;;;;8.73;2.42;;;9.30;99.90;;;;;;5062838;28;20075;-72
2021/03/29 00:48:37;;;;;;;8.38;1.88;;;9.30;99.90;;;;;;5066926;28;20100;-73
2021/03/29 00:51:13;;;;;;;13.27;2.50;;;9.30;99.90;;;;;;5068056;28;20032;-73
2021/03/29 00:53:43;;;;;;;13.25;2.67;;;9.40;99.90;;;;;;5055820;28;20040;-72
2021/03/29 00:56:09;;;;;;;11.50;2.70;;;9.40;99.90;;;;;;5064508;28;20063;-73
2021/03/29 00:58:36;;;;;;;11.02;2.33;;;9.40;99.90;;;;;;5065170;28;20064;-71
2021/03/29 01:01:07;;;;;;;8.20;2.53;;;9.40;99.90;;;;;;5059530;28;20099;-73
2021/03/29 01:03:34;;;;;;;7.18;2.60;;;9.30;99.90;;;;;;5062136;28;20049;-72
2021/03/29 01:06:06;;;;;;;5.63;1.90;;;9.40;99.90;;;;;;5065195;28;20083;-72
2021/03/29 01:08:38;;;;;;;10.95;2.65;;;9.30;99.90;;;;;;5064639;28;20045;-73
2021/03/29 01:11:06;;;;;;;9.80;2.20;;;9.20;99.90;;;;;;5058916;28;20057;-73
2021/03/29 01:13:38;;;;;;;13.05;2.80;;;9.20;99.90;;;;;;5061164;28;20117;-71
2021/03/29 01:16:07;;;;;;;6.15;2.22;;;9.20;99.90;;;;;;5064693;28;20064;-70
2021/03/29 01:18:34;;;;;;;6.40;2.08;;;9.30;99.90;;;;;;5064910;28;20056;-72
2021/03/29 01:21:02;;;;;;;15.95;2.65;;;9.30;99.90;;;;;;5060606;28;20100;-72
2021/03/29 01:23:31;;;;;;;10.77;2.28;;;9.30;99.90;;;;;;5063612;28;20044;-73
2021/03/29 01:26:36;;;;;;;10.32;2.63;;;9.20;99.90;;;;;;5063345;28;20041;-73
2021/03/29 01:29:03;;;;;;;8.45;2.90;;;9.30;99.90;;;;;;5049987;28;20066;-72
2021/03/29 01:31:29;;;;;;;8.20;1.98;;;9.30;99.90;;;;;;5064189;28;20045;-72
2021/03/29 01:33:56;;;;;;;9.95;2.40;;;9.30;99.90;;;;;;5052564;28;20398;-72
2021/03/29 01:36:23;;;;;;;14.88;2.33;;;9.30;99.90;;;;;;5062508;28;20037;-72
2021/03/29 01:38:50;;;;;;;11.85;2.67;;;9.30;99.90;;;;;;5063139;28;20512;-72
2021/03/29 01:41:17;;;;;;;9.77;2.33;;;9.40;99.90;;;;;;5063655;28;20057;-72
2021/03/29 01:43:45;;;;;;;13.97;3.07;;;9.30;99.90;;;;;;5064243;28;20045;-72
2021/03/29 01:46:11;;;;;;;10.52;3.25;;;9.30;99.90;;;;;;5064274;28;20045;-73
2021/03/29 01:48:38;;;;;;;12.25;2.65;;;9.30;99.90;;;;;;5054221;28;20052;-72
2021/03/29 01:51:04;;;;;;;7.15;2.50;;;9.30;99.90;;;;;;5064147;28;20041;-72
2021/03/29 01:53:33;;;;;;;13.25;2.53;;;9.30;99.90;;;;;;5052175;28;20390;-72
2021/03/29 01:55:58;;;;;;;13.30;2.35;;;9.30;99.90;;;;;;5062033;28;20048;-72
2021/03/29 01:58:24;;;;;;;8.18;2.80;;;9.30;99.90;;;;;;5064237;28;20029;-72
2021/03/29 02:01:04;;;;;;;7.07;2.22;;;9.30;99.90;;;;;;5063886;28;20075;-73
2021/03/29 02:03:30;;;;;;;11.07;2.80;;;9.30;99.90;;;;;;5058842;28;20045;-72
2021/03/29 02:05:58;;;;;;;10.13;2.55;;;9.30;99.90;;;;;;5064087;28;20040;-72
2021/03/29 02:08:24;;;;;;;7.93;2.42;;;9.40;99.90;;;;;;5063736;28;20095;-72
2021/03/29 02:10:51;;;;;;;6.88;2.70;;;9.40;99.90;;;;;;5061060;28;20037;-73
2021/03/29 02:13:19;;;;;;;9.68;3.00;;;9.40;99.90;;;;;;5058593;28;20505;-73
2021/03/29 02:15:48;;;;;;;9.18;2.30;;;9.40;99.90;;;;;;5063581;28;20128;-72
2021/03/29 02:18:18;;;;;;;7.18;2.58;;;9.40;99.90;;;;;;5062863;28;20113;-73
2021/03/29 02:20:44;;;;;;;14.40;2.75;;;9.40;99.90;;;;;;5050077;28;20075;-72
2021/03/29 02:23:10;;;;;;;9.02;2.55;;;9.40;99.90;;;;;;5054855;28;20053;-72
2021/03/29 02:25:37;;;;;;;5.53;2.30;;;9.30;99.90;;;;;;5063740;28;20052;-72
2021/03/29 02:28:05;;;;;;;8.60;2.67;;;9.40;99.90;;;;;;5064510;28;20059;-73
2021/03/29 02:30:42;;;;;;;12.43;3.03;;;9.40;99.90;;;;;;5062940;28;20045;-71
2021/03/29 02:33:10;;;;;;;8.55;2.80;;;9.40;99.90;;;;;;5062093;28;20064;-73
2021/03/29 02:35:37;;;;;;;13.57;3.17;;;9.40;99.90;;;;;;5063777;28;20420;-72
2021/03/29 02:38:06;;;;;;;10.47;3.13;;;9.50;99.90;;;;;;5062768;28;20041;-72
2021/03/29 02:40:33;;;;;;;8.13;2.13;;;9.40;99.90;;;;;;5055989;28;20393;-72
2021/03/29 02:43:01;;;;;;;12.93;3.08;;;9.40;99.90;;;;;;5058609;28;20127;-73
2021/03/29 02:45:33;;;;;;;7.30;3.15;;;9.30;99.90;;;;;;5062825;28;20067;-74
2021/03/29 02:48:10;;;;;;;17.27;3.10;;;9.30;99.90;;;;;;5062487;28;20045;-72
2021/03/29 02:50:47;;;;;;;6.88;2.63;;;9.30;99.90;;;;;;5062641;28;20053;-73
2021/03/29 02:53:20;;;;;;;13.15;3.00;;;9.20;99.90;;;;;;5059513;28;20053;-72
2021/03/29 02:55:47;;;;;;;7.85;2.95;;;9.20;99.90;;;;;;5061211;28;20044;-73
2021/03/29 02:58:16;;;;;;;12.17;2.97;;;9.20;99.90;;;;;;5063039;28;20041;-72
2021/03/29 03:00:42;;;;;;;11.23;3.47;;;9.30;99.90;;;;;;5061799;28;20319;-73
2021/03/29 03:03:09;;;;;;;14.48;3.47;;;9.20;99.90;;;;;;5063891;28;20045;-73
2021/03/29 03:05:36;;;;;;;10.20;3.35;;;9.30;99.90;;;;;;5062875;28;20098;-73
2021/03/29 03:08:04;;;;;;;17.45;3.35;;;9.20;99.90;;;;;;5055197;28;20045;-74
2021/03/29 03:10:34;;;;;;;8.25;2.67;;;9.20;99.90;;;;;;5057476;28;20040;-74
2021/03/29 03:13:03;;;;;;;12.93;3.20;;;9.30;99.90;;;;;;5062445;28;20049;-72
2021/03/29 03:15:29;;;;;;;10.63;3.55;;;9.30;99.90;;;;;;5063006;28;20041;-72
2021/03/29 03:17:58;;;;;;;7.88;2.50;;;9.30;99.90;;;;;;5062234;28;20311;-73
2021/03/29 03:20:24;;;;;;;9.43;2.75;;;9.30;99.90;;;;;;5057263;28;20092;-73
2021/03/29 03:22:56;;;;;;;11.50;2.60;;;9.40;99.90;;;;;;5062081;28;20514;-73
2021/03/29 03:25:25;;;;;;;12.07;3.30;;;9.40;99.90;;;;;;5062154;28;20040;-73
2021/03/29 03:27:52;;;;;;;14.48;3.13;;;9.50;99.90;;;;;;5062567;28;20044;-73
2021/03/29 03:30:25;;;;;;;10.02;2.85;;;9.50;99.90;;;;;;5060653;28;20080;-72
2021/03/29 03:32:52;;;;;;;8.60;2.42;;;9.40;99.90;;;;;;5062657;28;20075;-73
2021/03/29 03:35:21;;;;;;;8.87;2.57;;;9.40;99.90;;;;;;5062415;28;20135;-73
2021/03/29 03:37:50;;;;;;;14.63;2.35;;;9.40;99.90;;;;;;5062014;28;20053;-73
2021/03/29 03:40:19;;;;;;;4.38;2.45;;;9.50;99.90;;;;;;5059457;28;20080;-73
2021/03/29 03:42:47;;;;;;;8.32;2.50;;;9.50;99.90;;;;;;5062432;28;20040;-73
2021/03/29 03:45:13;;;;;;;15.25;3.28;;;9.50;99.90;;;;;;5062357;28;20116;-73
2021/03/29 03:47:41;;;;;;;6.38;2.35;;;9.50;99.90;;;;;;5062015;28;20178;-74
2021/03/29 03:50:10;;;;;;;13.75;3.35;;;9.50;99.90;;;;;;5058188;28;20037;-74
2021/03/29 03:52:38;;;;;;;13.60;3.63;;;9.50;99.90;;;;;;5060930;28;20045;-73
2021/03/29 03:55:07;;;;;;;12.63;3.17;;;9.50;99.90;;;;;;5061580;28;20048;-74
2021/03/29 03:57:40;;;;;;;13.07;3.10;;;9.50;99.90;;;;;;5062270;28;20060;-74
2021/03/29 04:00:09;;;;;;;13.82;3.08;;;9.60;99.90;;;;;;5057146;28;20408;-72
2021/03/29 04:02:35;;;;;;;9.82;3.38;;;9.60;99.90;;;;;;5062361;28;20051;-74
2021/03/29 04:05:06;;;;;;;15.48;3.80;;;9.60;99.90;;;;;;5061956;28;20037;-74
2021/03/29 04:07:32;;;;;;;9.25;2.67;;;9.60;99.90;;;;;;5060488;28;20080;-73
2021/03/29 04:10:15;;;;;;;8.77;2.72;;;9.60;99.90;;;;;;5061414;28;20041;-73
2021/03/29 04:12:45;;;;;;;16.63;2.95;;;9.50;99.90;;;;;;5055393;28;20045;-73
2021/03/29 04:15:12;;;;;;;14.32;3.25;;;9.50;99.90;;;;;;5060881;28;20056;-73
2021/03/29 04:17:38;;;;;;;12.68;3.00;;;9.50;99.90;;;;;;5061532;28;20041;-73
2021/03/29 04:20:06;;;;;;;11.55;2.47;;;9.50;99.90;;;;;;5054620;28;20043;-73
2021/03/29 04:22:31;;;;;;;13.35;3.13;;;9.50;99.90;;;;;;5062014;28;20048;-73
2021/03/29 04:24:57;;;;;;;11.32;3.50;;;9.60;99.90;;;;;;5060567;28;20045;-73
2021/03/29 04:27:23;;;;;;;12.25;2.90;;;9.60;99.90;;;;;;5057402;28;20332;-73
2021/03/29 04:29:49;;;;;;;15.57;3.55;;;9.60;99.90;;;;;;5061989;28;20053;-72
2021/03/29 04:32:15;;;;;;;15.18;3.10;;;9.50;99.90;;;;;;5062157;28;20045;-74
2021/03/29 04:34:41;;;;;;;15.77;3.40;;;9.60;99.90;;;;;;5061679;28;20130;-73
2021/03/29 04:37:06;;;;;;;11.57;3.42;;;9.50;99.90;;;;;;5061900;28;20067;-73
2021/03/29 04:39:32;;;;;;;6.75;2.30;;;9.60;99.90;;;;;;5052348;28;20048;-74
2021/03/29 04:41:58;;;;;;;13.38;3.10;;;9.60;99.90;;;;;;5056600;28;20060;-72
2021/03/29 04:44:24;;;;;;;13.93;3.65;;;9.60;99.90;;;;;;5061658;28;20175;-72
2021/03/29 04:46:50;;;;;;;14.20;3.40;;;9.60;99.90;;;;;;5061702;28;20048;-73
2021/03/29 04:49:16;;;;;;;11.82;3.22;;;9.60;99.90;;;;;;5053254;28;20052;-73
2021/03/29 04:51:41;;;;;;;15.60;3.38;;;9.50;99.90;;;;;;5061798;28;20131;-73
2021/03/29 04:54:07;;;;;;;12.35;3.50;;;9.60;99.90;;;;;;5060800;28;20052;-73
2021/03/29 04:56:33;;;;;;;11.77;3.42;;;9.50;99.90;;;;;;5061809;28;20139;-74
2021/03/29 04:59:00;;;;;;;16.52;3.28;;;9.60;99.90;;;;;;5061644;28;20060;-73
2021/03/29 05:01:25;;;;;;;16.77;3.55;;;9.50;99.90;;;;;;5061238;28;20040;-73
2021/03/29 05:03:51;;;;;;;10.55;2.75;;;9.40;99.90;;;;;;5056263;28;20044;-74
2021/03/29 05:06:17;;;;;;;10.02;3.00;;;9.40;99.90;;;;;;5064876;28;20047;-72
2021/03/29 05:08:43;;;;;;;13.07;3.35;;;9.40;99.90;;;;;;5064896;28;20052;-73
2021/03/29 05:11:10;;;;;;;10.18;3.10;;;9.40;99.90;;;;;;5064489;28;20037;-73
2021/03/29 05:13:36;;;;;;;21.50;4.35;;;9.40;99.90;;;;;;5065750;28;20051;-73
2021/03/29 05:16:03;;;;;;;13.43;3.40;;;9.40;99.90;;;;;;5064415;28;20044;-73
2021/03/29 05:18:29;;;;;;;12.57;3.67;;;9.30;99.90;;;;;;5063883;28;20443;-73
2021/03/29 05:20:55;;;;;;;14.75;3.97;;;9.20;99.90;;;;;;5064860;28;20051;-72
2021/03/29 05:23:21;;;;;;;15.68;4.45;;;9.20;99.90;;;;;;5065595;28;20041;-72
2021/03/29 05:25:48;;;;;;;14.60;3.65;;;9.20;99.90;;;;;;5061252;28;20100;-72
2021/03/29 05:28:14;;;;;;;12.30;2.97;;;9.30;99.90;;;;;;5064862;28;20033;-72
2021/03/29 05:30:40;;;;;;;9.97;4.47;;;9.30;99.90;;;;;;5063117;28;20049;-73
2021/03/29 05:33:07;;;;;;;17.83;3.72;;;9.30;99.90;;;;;;5064213;28;20040;-72
2021/03/29 05:35:33;;;;;;;10.20;3.50;;;9.30;99.90;;;;;;5052592;28;20124;-75
2021/03/29 05:37:59;;;;;;;12.15;3.65;;;9.30;99.90;;;;;;5055213;28;20052;-74
2021/03/29 05:40:25;;;;;;;9.23;2.50;;;9.30;99.90;;;;;;5054436;28;20041;-72
2021/03/29 05:42:51;;;;;;;12.60;3.80;;;9.50;99.90;;;;;;5058209;28;20060;-73
2021/03/29 05:45:18;;;;;;;9.45;3.78;;;9.50;99.90;;;;;;5058718;28;20036;-73
2021/03/29 05:47:43;;;;;;;13.95;3.55;;;9.50;99.90;;;;;;5063369;28;20041;-73
2021/03/29 05:50:12;;;;;;;15.25;3.45;;;9.50;99.90;;;;;;5070202;28;20105;-73
2021/03/29 05:52:39;;;;;;;7.32;3.03;;;9.50;99.90;;;;;;5054981;28;20105;-73
2021/03/29 05:55:09;;;;;;;14.25;3.65;;;9.50;99.90;;;;;;5064324;28;20060;-74
2021/03/29 05:58:31;;;;;;;11.88;4.03;;;9.50;99.90;;;;;;5074687;28;20080;-73
2021/03/29 06:00:44;;;;;;;7.93;2.85;;;9.40;99.90;;;;;;5066820;28;20052;-73
2021/03/29 06:03:23;;;;;;;15.35;3.13;;;9.50;99.90;;;;;;5077882;28;20083;-73
2021/03/29 06:05:51;;;;;;;12.43;3.42;;;9.40;99.90;;;;;;5067766;28;20353;-73
2021/03/29 06:08:17;;;;;;;17.98;4.15;;;9.30;99.90;;;;;;5076855;28;20029;-72
2021/03/29 06:10:44;;;;;;;22.77;3.20;;;9.30;99.90;;;;;;5057442;28;20056;-75
2021/03/29 06:13:33;;;;;;;11.07;2.67;;;9.30;99.90;;;;;;5064141;28;20093;-74
2021/03/29 06:16:08;;;;;;;11.85;3.40;;;9.30;99.90;;;;;;5049663;28;20496;-75
2021/03/29 06:18:36;;;;;;;22.40;3.80;;;9.40;99.90;;;;;;5064191;28;20056;-73
2021/03/29 06:21:08;;;;;;;12.90;3.40;;;9.40;99.90;;;;;;5068456;28;20097;-74
2021/03/29 06:23:36;;;;;;;13.32;4.15;;;9.40;99.90;;;;;;5077627;28;20048;-74
2021/03/29 06:26:25;;;;;;;10.57;3.53;;;9.50;99.90;;;;;;5063060;28;20040;-72
2021/03/29 06:28:52;;;;;;;10.38;2.90;;;9.40;99.90;;;;;;5063277;28;20068;-75
2021/03/29 06:31:28;;;;;;;14.38;4.13;;;9.40;99.90;;;;;;5063527;28;20045;-74
2021/03/29 06:33:56;;;;;;;20.48;4.40;;;9.50;99.90;;;;;;5063292;28;20045;-74
2021/03/29 06:36:28;;;;;;;15.82;4.72;;;9.50;99.90;;;;;;5062877;28;20041;-74
2021/03/29 06:39:14;;;;;;;13.98;4.15;;;9.60;99.90;;;;;;5063278;28;20066;-75
2021/03/29 06:41:41;;;;;;;11.95;2.65;;;9.60;99.90;;;;;;5062747;28;20052;-74
2021/03/29 06:44:22;;;;;;;13.15;2.92;;;9.70;99.90;;;;;;5058407;28;20041;-74
2021/03/29 06:46:48;;;;;;;13.25;3.60;;;9.70;99.90;;;;;;5054964;28;20500;-73
2021/03/29 06:49:13;;;;;;;19.23;4.18;;;9.80;99.90;;;;;;5063126;28;20055;-74
2021/03/29 06:51:42;;;;;;;12.45;4.00;;;9.80;99.90;;;;;;5062392;28;20083;-74
2021/03/29 06:54:10;;;;;;;11.65;3.08;;;9.90;99.90;;;;;;5054514;28;20123;-74
2021/03/29 06:56:41;;;;;;;13.98;4.15;;;9.90;99.90;;;;;;5063186;28;20053;-74
2021/03/29 06:59:16;;;;;;;19.98;4.43;;;9.90;99.90;;;;;;5063016;28;20056;-74
2021/03/29 07:01:52;;;;;;;18.20;3.38;;;10.00;99.90;;;;;;5051953;28;20045;-73
2021/03/29 07:04:23;;;;;;;13.77;3.75;;;10.00;99.90;;;;;;5062762;28;20123;-73
2021/03/29 07:06:50;;;;;;;18.70;5.00;;;10.10;99.90;;;;;;5050453;28;20120;-73
2021/03/29 07:09:17;;;;;;;17.60;3.60;;;10.10;99.90;;;;;;5055878;28;20043;-74
2021/03/29 07:11:47;;;;;;;19.63;4.85;;;10.20;99.90;;;;;;5056669;28;20052;-74
2021/03/29 07:14:19;;;;;;;11.50;3.13;;;10.20;99.90;;;;;;5062438;28;20052;-74
2021/03/29 07:16:46;;;;;;;14.95;3.65;;;10.30;99.90;;;;;;5059028;28;20052;-73
2021/03/29 07:19:12;;;;;;;17.53;3.90;;;10.30;99.90;;;;;;5052452;28;20076;-74
2021/03/29 07:21:39;;;;;;;23.35;4.63;;;10.40;99.90;;;;;;5059343;28;20311;-76
2021/03/29 07:24:10;;;;;;;11.00;3.72;;;10.40;99.90;;;;;;5054374;28;20049;-74
2021/03/29 07:26:54;;;;;;;15.10;4.18;;;10.50;99.90;;;;;;5053440;28;20114;-74
2021/03/29 07:29:24;;;;;;;12.98;3.78;;;10.60;99.90;;;;;;5052891;28;20037;-75
2021/03/29 07:31:56;;;;;;;17.98;4.93;;;10.60;99.90;;;;;;5050475;28;20051;-72
2021/03/29 07:34:48;;;;;;;13.52;4.53;;;10.70;99.90;;;;;;5056372;28;20041;-72
2021/03/29 07:37:40;;;;;;;11.27;3.15;;;10.80;99.90;;;;;;5058113;28;20099;-73
2021/03/29 07:40:18;;;;;;;11.45;3.60;;;10.80;99.90;;;;;;5056308;28;20083;-72
2021/03/29 07:42:46;;;;;;;18.67;4.45;;;10.90;99.90;;;;;;5060299;28;20040;-72
2021/03/29 07:45:14;;;;;;;19.20;4.68;;;10.90;99.90;;;;;;5061758;28;20057;-75
2021/03/29 07:47:53;;;;;;;14.23;4.03;;;11.00;99.90;;;;;;5058045;28;20055;-75
2021/03/29 07:50:39;;;;;;;17.17;4.13;;;11.00;99.90;;;;;;5059412;28;20040;-72
2021/03/29 07:53:05;;;;;;;21.92;4.80;;;11.10;99.90;;;;;;5060759;28;20492;-72
2021/03/29 07:55:36;;;;;;;15.77;4.15;;;11.30;99.90;;;;;;5068082;28;20045;-71
2021/03/29 07:58:06;;;;;;;15.68;4.75;;;11.40;99.90;;;;;;5060130;28;20047;-71
2021/03/29 08:01:07;;;;;;;15.00;3.65;;;11.40;99.90;;;;;;5065383;28;20076;-72
2021/03/29 08:03:37;;;;;;;15.82;4.72;;;11.40;99.90;;;;;;5065211;28;20112;-72
2021/03/29 08:06:04;;;;;;;16.85;4.00;;;11.40;99.90;;;;;;5059649;28;20045;-73
2021/03/29 08:08:32;;;;;;;17.23;4.38;;;11.50;99.90;;;;;;5065631;28;20043;-71
2021/03/29 08:11:11;;;;;;;17.75;3.38;;;11.60;99.90;;;;;;5056885;28;20037;-71
2021/03/29 08:13:58;;;;;;;16.00;3.65;;;11.60;99.90;;;;;;5056356;28;20109;-72
2021/03/29 08:16:28;;;;;;;12.05;4.25;;;11.70;99.90;;;;;;5052569;28;20075;-72
2021/03/29 08:19:20;;;;;;;22.80;4.57;;;11.80;99.90;;;;;;5058972;28;20045;-72
2021/03/29 08:22:05;;;;;;;24.85;6.47;;;11.90;99.90;;;;;;5065953;28;20041;-71
2021/03/29 08:24:38;;;;;;;22.13;4.78;;;12.00;99.90;;;;;;5057586;28;20053;-72
2021/03/29 08:27:06;;;;;;;13.88;4.00;;;12.00;99.90;;;;;;5057589;28;20049;-73
2021/03/29 08:29:38;;;;;;;20.23;5.07;;;12.00;99.90;;;;;;5058818;28;20041;-72
2021/03/29 08:32:18;;;;;;;17.33;5.15;;;12.10;99.90;;;;;;5058364;28;20408;-74
2021/03/29 08:34:55;;;;;;;18.83;4.38;;;12.30;99.90;;;;;;5060856;28;20045;-72
2021/03/29 08:37:29;;;;;;;19.95;4.60;;;12.40;99.90;;;;;;5058672;28;20108;-73
2021/03/29 08:39:58;;;;;;;20.92;4.50;;;12.40;99.90;;;;;;5061716;28;20051;-73
2021/03/29 08:42:30;;;;;;;19.38;5.03;;;12.30;99.90;;;;;;5063658;28;20049;-72
2021/03/29 08:44:56;;;;;;;14.90;3.80;;;12.50;99.90;;;;;;5061426;28;20045;-72
2021/03/29 08:47:24;;;;;;;17.27;4.10;;;12.60;99.90;;;;;;5063420;28;20485;-71
2021/03/29 08:49:51;;;;;;;;;;;12.70;99.90;;;;;;5063550;28;20045;-66
2021/03/29 08:52:18;;;;;;;20.70;3.90;;;12.80;99.90;;;;;;5065522;28;19928;-71
2021/03/29 08:54:54;;;;;;;23.40;4.65;;;12.70;99.90;;;;;;5061004;28;20064;-72
2021/03/29 08:57:28;;;;;;;14.82;4.80;;;12.90;99.90;;;;;;5064776;28;20045;-70
2021/03/29 08:59:56;;;;;;;17.10;4.22;;;12.90;99.90;;;;;;5064340;28;20033;-71
2021/03/29 09:02:22;;;;;;;;;;;12.80;99.90;;;;;;5063366;28;20489;-70
2021/03/29 09:04:57;;;;;;;26.33;5.38;;;12.80;99.90;;;;;;5071603;28;19920;-70
2021/03/29 09:07:39;;;;;;;14.88;4.50;;;12.60;99.90;;;;;;5069792;28;20045;-72
2021/03/29 09:10:19;;;;;;;17.80;5.13;;;12.70;99.90;;;;;;5067384;28;20056;-74
2021/03/29 09:12:51;;;;;;;17.65;5.75;;;12.70;99.90;;;;;;5063414;28;20048;-72
2021/03/29 09:15:18;;;;;;;26.08;5.28;;;12.70;99.90;;;;;;5064427;28;20103;-71
2021/03/29 09:17:53;;;;;;;16.03;4.77;;;12.80;99.90;;;;;;5066502;28;20055;-68
2021/03/29 09:20:25;;;;;;;25.52;5.30;;;12.80;99.90;;;;;;5058174;28;20337;-69
2021/03/29 09:22:51;;;;;;;14.68;4.78;;;12.90;99.90;;;;;;5053361;28;20045;-68
2021/03/29 09:25:27;;;;;;;20.73;4.68;;;13.00;99.90;;;;;;5061246;28;20056;-67
2021/03/29 09:28:12;;;;;;;16.63;4.88;;;13.10;99.90;;;;;;5061027;28;20037;-69
2021/03/29 09:30:38;;;;;;;21.27;4.82;;;13.20;99.90;;;;;;5062830;28;20056;-71
2021/03/29 09:33:04;;;;;;;17.52;5.25;;;13.40;99.90;;;;;;5061829;28;20090;-76
2021/03/29 09:35:31;;;;;;;17.20;5.20;;;13.60;99.90;;;;;;5060647;28;20041;-76
2021/03/29 09:37:57;;;;;;;16.75;5.00;;;13.70;99.90;;;;;;5060086;28;20044;-76
2021/03/29 09:40:34;;;;;;;20.10;4.20;;;13.50;99.90;;;;;;5060884;28;20049;-77
2021/03/29 09:43:00;;;;;;;19.40;5.15;;;13.80;99.90;;;;;;5063961;28;20104;-69
2021/03/29 09:45:28;;;;;;;19.40;4.75;;;14.00;99.90;;;;;;5065155;28;20516;-72
2021/03/29 09:48:01;;;;;;;18.85;5.70;;;13.90;99.90;;;;;;5063549;28;20139;-74
2021/03/29 09:50:30;;;;;;;16.95;4.25;;;13.70;99.90;;;;;;5062906;28;20041;-67
2021/03/29 09:53:15;;;;;;;17.25;4.57;;;13.40;99.90;;;;;;5065487;28;20063;-68
2021/03/29 09:56:03;;;;;;;18.80;5.25;;;13.50;99.90;;;;;;5063784;28;20041;-70
2021/03/29 09:58:37;;;;;;;16.13;5.18;;;13.30;99.90;;;;;;5060879;28;20121;-71
2021/03/29 10:01:15;;;;;;;16.48;5.13;;;13.50;99.90;;;;;;5063337;28;20036;-73
2021/03/29 10:03:56;;;;;;;21.75;4.68;;;13.70;99.90;;;;;;5063729;28;20077;-68
2021/03/29 10:06:24;;;;;;;16.75;5.97;;;13.70;99.90;;;;;;5061015;28;20108;-74
2021/03/29 10:08:57;;;;;;;16.88;5.25;;;13.70;99.90;;;;;;5061408;28;20045;-71
2021/03/29 10:11:24;;;;;;;15.23;5.40;;;14.00;99.90;;;;;;5071308;28;20052;-71
2021/03/29 10:13:50;;;;;;;19.00;5.47;;;14.20;99.90;;;;;;5069056;28;20299;-69
2021/03/29 10:16:23;;;;;;;17.48;5.30;;;14.30;99.90;;;;;;5062937;28;20041;-68
2021/03/29 10:19:28;;;;;;;15.23;4.93;;;14.30;99.90;;;;;;5066962;28;20481;-71
2021/03/29 10:22:06;;;;;;;19.20;5.53;;;14.00;99.60;;;;;;4962357;28;20094;-69
2021/03/29 10:24:34;;;;;;;18.77;6.20;;;13.80;99.90;;;;;;4960335;28;20063;-66
2021/03/29 10:27:07;;;;;;;17.33;5.30;;;14.00;99.90;;;;;;4966719;28;20646;-66
2021/03/29 10:29:38;;;;;;;20.23;5.97;;;14.10;99.70;;;;;;4963512;29;20115;-67
2021/03/29 10:32:09;;;;;;;19.38;5.28;;;14.00;99.90;;;;;;4962735;28;20077;-66
2021/03/29 10:34:38;;;;;;;23.70;6.82;;;14.20;99.90;;;;;;4964926;28;20078;-70
2021/03/29 10:37:30;;;;;;;20.85;5.68;;;14.10;99.90;;;;;;4959805;28;20062;-71
2021/03/29 10:39:59;;;;;;;17.30;6.18;;;14.20;99.90;;;;;;4966329;28;20042;-69
2021/03/29 10:42:28;;;;;;;19.75;5.70;;;14.10;99.90;;;;;;4964845;28;20074;-71
2021/03/29 10:44:55;;;;;;;23.58;6.15;;;14.30;99.80;;;;;;4961996;28;20126;-67
2021/03/29 10:47:23;;;;;;;14.63;4.60;;;14.50;99.70;;;;;;4963443;28;20057;-64
2021/03/29 10:49:49;;;;;;;18.73;5.97;;;14.60;99.50;;;;;;4962071;28;20095;-66
2021/03/29 10:52:16;;;;;;;19.90;5.43;;;14.60;99.40;;;;;;4961906;28;20054;-68
2021/03/29 10:54:42;;;;;;;21.05;5.60;;;14.50;99.20;;;;;;4959679;28;20062;-69
2021/03/29 10:57:08;;;;;;;15.73;5.75;;;14.60;99.20;;;;;;5000508;28;20057;-70
2021/03/29 10:59:34;;;;;;;19.15;6.32;;;14.70;99.20;;;;;;5060106;28;20105;-69
2021/03/29 11:02:00;;;;;;;19.88;6.03;;;14.80;99.10;;;;;;5057877;28;20048;-64
2021/03/29 11:04:27;;;;;;;18.70;5.78;;;15.10;99.00;;;;;;5055796;28;20041;-67
2021/03/29 11:06:53;;;;;;;18.20;5.57;;;15.20;98.50;;;;;;5060295;28;20041;-67
2021/03/29 11:09:20;;;;;;;17.65;6.15;;;15.00;97.70;;;;;;5062427;28;20161;-68
2021/03/29 11:11:46;;;;;;;22.88;6.75;;;14.80;98.30;;;;;;5061880;28;20481;-68
2021/03/29 11:14:12;;;;;;;21.95;6.75;;;14.50;98.50;;;;;;5060960;28;20041;-67
2021/03/29 11:16:37;;;;;;;19.00;7.40;;;14.70;98.60;;;;;;5064210;28;20045;-68
2021/03/29 11:19:04;;;;;;;21.83;6.03;;;14.70;98.90;;;;;;5056929;28;20029;-67
2021/03/29 11:21:30;;;;;;;18.92;6.78;;;14.90;98.50;;;;;;5060485;28;20044;-66
2021/03/29 11:23:56;;;;;;;18.02;7.38;;;15.00;98.30;;;;;;5061264;28;20060;-67
2021/03/29 11:26:22;;;;;;;21.65;8.02;;;14.70;98.30;;;;;;5062622;28;20044;-67
2021/03/29 11:28:48;;;;;;;15.65;6.45;;;14.50;98.90;;;;;;5057535;28;20041;-67
2021/03/29 11:31:14;;;;;;;21.25;7.18;;;14.30;99.20;;;;;;5058867;28;20037;-67
2021/03/29 11:33:41;;;;;;;19.27;6.78;;;14.30;99.10;;;;;;5062771;28;20041;-67
2021/03/29 11:36:07;;;;;;;16.75;5.75;;;14.30;99.20;;;;;;5062780;28;20074;-67
2021/03/29 11:38:37;;;;;;;19.93;6.47;;;14.30;99.00;;;;;;5062850;28;20045;-67
2021/03/29 11:41:04;;;;;;;19.73;6.38;;;14.20;99.90;;;;;;5059722;28;20053;-68
2021/03/29 11:43:30;;;;;;;16.48;6.45;;;14.30;99.20;;;;;;5062281;28;20101;-68
2021/03/29 11:45:56;;;;;;;14.27;5.97;;;14.40;99.40;;;;;;5062280;28;20052;-68
2021/03/29 11:48:22;;;;;;;12.02;5.68;;;14.20;99.50;;;;;;5060621;28;20037;-69
2021/03/29 11:50:47;;;;;;;20.92;6.10;;;14.40;99.60;;;;;;5059808;28;20049;-67
2021/03/29 11:53:13;;;;;;;17.10;6.68;;;14.90;99.20;;;;;;5049082;28;20050;-68
2021/03/29 11:55:39;;;;;;;22.25;6.93;;;15.20;98.80;;;;;;5059122;28;20041;-68
2021/03/29 11:58:05;;;;;;;15.55;6.10;;;15.10;97.90;;;;;;5051924;28;20067;-68
2021/03/29 12:06:01;;;;;;;15.82;4.70;;;15.30;97.70;;;;;;5055481;28;20037;-73
2021/03/29 12:08:44;;;;;;;16.02;4.85;;;15.00;96.70;;;;;;5059280;28;20045;-73
2021/03/29 12:13:55;;;;;;;18.45;5.85;;;14.60;98.20;;;;;;5066172;28;20037;-71
2021/03/29 12:16:23;;;;;;;17.70;5.53;;;14.60;98.40;;;;;;5063516;28;20041;-76
2021/03/29 12:18:53;;;;;;;11.60;5.32;;;14.60;98.20;;;;;;5069218;28;20504;-73
2021/03/29 12:21:28;;;;;;;13.27;5.40;;;15.10;97.80;;;;;;5064518;28;20053;-69
2021/03/29 12:23:58;;;;;;;15.23;5.47;;;15.10;97.20;;;;;;5062829;28;20045;-70
2021/03/29 12:26:27;;;;;;;12.93;5.32;;;14.80;97.50;;;;;;5063195;28;20068;-72
2021/03/29 12:28:54;;;;;;;15.82;5.53;;;15.00;97.80;;;;;;5062327;28;20041;-70
2021/03/29 12:31:20;;;;;;;15.93;5.28;;;15.20;97.50;;;;;;5061885;28;20048;-70
2021/03/29 12:33:50;;;;;;;18.30;5.80;;;15.00;97.40;;;;;;5066616;28;20100;-71
2021/03/29 12:36:17;;;;;;;17.35;5.88;;;15.00;97.90;;;;;;5062034;28;20048;-69
2021/03/29 12:38:57;;;;;;;;;;;15.50;97.40;;;;;;5065146;28;20049;-71
2021/03/29 12:41:23;;;;;;;22.60;5.93;;;15.90;96.80;;;;;;5077795;28;19920;-71
2021/03/29 12:44:01;;;;;;;15.80;5.78;;;15.90;96.20;;;;;;5081466;28;20569;-72
2021/03/29 12:46:27;;;;;;;17.23;5.60;;;16.20;95.20;;;;;;5088392;28;20099;-72
2021/03/29 12:48:53;;;;;;;19.17;5.78;;;16.90;94.90;;;;;;5083881;28;20045;-71
2021/03/29 12:51:19;;;;;;;15.23;5.85;;;17.20;94.20;;;;;;5087113;28;20369;-66
2021/03/29 12:53:47;;;;;;;19.88;6.13;;;17.00;93.50;;;;;;5086295;28;20036;-70
2021/03/29 12:56:15;;;;;;;17.38;5.60;;;17.30;93.60;;;;;;5086567;28;20037;-72
2021/03/29 12:58:41;;;;;;;14.70;4.15;;;17.40;92.60;;;;;;5084063;28;20045;-71
2021/03/29 13:01:07;;;;;;;16.30;5.43;;;17.50;91.50;;;;;;5085012;28;20067;-71
2021/03/29 13:03:55;;;;;;;18.70;5.07;;;17.00;92.50;;;;;;5080054;28;20045;-74
2021/03/29 13:06:27;;;;;;;20.38;5.38;;;16.70;92.90;;;;;;5082424;28;20064;-75
2021/03/29 13:09:00;;;;;;;15.35;4.30;;;17.20;93.20;;;;;;5086039;28;20067;-74